createdAt,value
2023-09-27T00:00:34.480Z,8.10
2023-09-27T00:03:05.457Z,8.53
2023-09-27T00:05:33.816Z,8.63
2023-09-27T00:08:02.103Z,6.70
2023-09-27T00:10:30.176Z,6.97
2023-09-27T00:12:58.216Z,7.30
2023-09-27T00:15:26.396Z,7.80
2023-09-27T00:17:55.469Z,8.57
2023-09-27T00:20:25.785Z,8.80
2023-09-27T00:22:55.699Z,8.60
2023-09-27T00:25:24.197Z,8.60
2023-09-27T00:27:52.239Z,8.53
2023-09-27T00:30:20.351Z,9.27
2023-09-27T00:32:49.668Z,8.37
2023-09-27T00:35:22.569Z,8.33
2023-09-27T00:37:52.644Z,8.00
2023-09-27T00:40:23.478Z,7.80
2023-09-27T00:42:51.790Z,7.47
2023-09-27T00:45:20.206Z,7.73
2023-09-27T00:47:49.906Z,8.50
2023-09-27T00:50:18.854Z,9.23
2023-09-27T00:52:50.210Z,7.50
2023-09-27T00:55:22.075Z,8.73
2023-09-27T00:57:52.487Z,7.63
2023-09-27T01:00:21.618Z,8.33
2023-09-27T01:02:49.878Z,8.70
2023-09-27T01:05:19.622Z,8.70
2023-09-27T01:07:48.467Z,8.37
2023-09-27T01:10:16.599Z,8.63
2023-09-27T01:12:46.153Z,8.70
2023-09-27T01:15:14.242Z,7.80
2023-09-27T01:17:54.679Z,8.97
2023-09-27T01:20:24.090Z,8.47
2023-09-27T01:22:58.116Z,7.80
2023-09-27T01:25:30.247Z,8.47
2023-09-27T01:27:59.237Z,7.90
2023-09-27T01:30:33.188Z,8.50
2023-09-27T01:33:04.920Z,9.10
2023-09-27T01:35:33.178Z,7.57
2023-09-27T01:38:03.406Z,7.63
2023-09-27T01:40:32.508Z,7.80
2023-09-27T01:43:00.765Z,7.17
2023-09-27T01:45:30.315Z,7.60
2023-09-27T01:47:58.946Z,7.07
2023-09-27T01:50:27.804Z,7.70
2023-09-27T01:52:56.765Z,7.40
2023-09-27T01:55:26.855Z,7.50
2023-09-27T01:57:55.276Z,7.30
2023-09-27T02:00:23.518Z,7.20
2023-09-27T02:02:52.639Z,6.80
2023-09-27T02:05:20.755Z,7.63
2023-09-27T02:07:48.873Z,6.57
2023-09-27T02:10:16.935Z,6.90
2023-09-27T02:12:46.615Z,6.10
2023-09-27T02:15:16.058Z,6.20
2023-09-27T02:17:45.104Z,6.10
2023-09-27T02:20:15.540Z,5.77
2023-09-27T02:22:43.960Z,5.73
2023-09-27T02:25:13.400Z,4.97
2023-09-27T02:27:42.600Z,5.20
2023-09-27T02:30:13.628Z,4.83
2023-09-27T02:32:44.743Z,5.40
2023-09-27T02:35:14.689Z,5.40
2023-09-27T02:37:44.895Z,6.00
2023-09-27T02:40:14.528Z,5.97
2023-09-27T02:42:44.131Z,6.00
2023-09-27T02:45:14.596Z,6.10
2023-09-27T02:47:46.851Z,5.80
2023-09-27T02:50:16.932Z,5.90
2023-09-27T02:52:45.805Z,6.40
2023-09-27T02:55:15.017Z,7.17
2023-09-27T02:57:43.810Z,7.83
2023-09-27T03:00:14.084Z,6.50
2023-09-27T03:02:43.034Z,6.70
2023-09-27T03:05:12.656Z,5.83
2023-09-27T03:07:40.921Z,7.30
2023-09-27T03:10:12.148Z,7.17
2023-09-27T03:12:41.799Z,6.50
2023-09-27T03:15:13.390Z,6.70
2023-09-27T03:17:45.352Z,6.60
2023-09-27T03:20:17.504Z,6.30
2023-09-27T03:22:47.431Z,7.13
2023-09-27T03:25:17.980Z,6.90
2023-09-27T03:27:46.535Z,7.40
2023-09-27T03:30:14.905Z,6.97
2023-09-27T03:32:45.140Z,7.30
2023-09-27T03:35:13.524Z,6.50
2023-09-27T03:37:41.584Z,6.40
2023-09-27T03:40:14.760Z,6.40
2023-09-27T03:42:45.949Z,6.70
2023-09-27T03:45:15.535Z,6.73
2023-09-27T03:47:46.372Z,6.57
2023-09-27T03:50:19.056Z,6.90
2023-09-27T03:52:47.138Z,7.00
2023-09-27T03:55:15.289Z,7.83
2023-09-27T03:57:43.585Z,5.73
2023-09-27T04:00:14.886Z,6.40
2023-09-27T04:02:47.942Z,6.00
2023-09-27T04:05:18.259Z,6.40
2023-09-27T04:07:46.390Z,7.17
2023-09-27T04:10:14.840Z,5.00
2023-09-27T04:12:42.848Z,6.27
2023-09-27T04:15:11.770Z,6.47
2023-09-27T04:17:40.362Z,6.30
2023-09-27T04:20:15.308Z,6.30
2023-09-27T04:22:45.816Z,6.10
2023-09-27T04:25:14.374Z,7.00
2023-09-27T04:27:44.272Z,6.10
2023-09-27T04:30:14.580Z,6.37
2023-09-27T04:32:45.037Z,6.50
2023-09-27T04:35:15.004Z,5.97
2023-09-27T04:37:43.255Z,6.50
2023-09-27T04:40:12.694Z,6.40
2023-09-27T04:42:41.255Z,6.13
2023-09-27T04:45:10.550Z,5.60
2023-09-27T04:47:38.827Z,6.27
2023-09-27T04:50:10.650Z,5.63
2023-09-27T04:52:40.718Z,6.63
2023-09-27T04:55:09.888Z,6.07
2023-09-27T04:57:38.641Z,5.73
2023-09-27T05:00:14.800Z,5.80
2023-09-27T05:02:43.184Z,6.90
2023-09-27T05:05:11.753Z,6.47
2023-09-27T05:07:41.642Z,6.40
2023-09-27T05:10:10.874Z,6.53
2023-09-27T05:12:40.593Z,6.40
2023-09-27T05:15:10.489Z,7.13
2023-09-27T05:17:39.107Z,7.23
2023-09-27T05:20:12.167Z,6.43
2023-09-27T05:22:43.825Z,6.40
2023-09-27T05:25:13.073Z,6.30
2023-09-27T05:27:41.372Z,6.97
2023-09-27T05:30:10.160Z,7.40
2023-09-27T05:32:38.447Z,7.20
2023-09-27T05:35:07.584Z,6.57
2023-09-27T05:37:35.600Z,6.47
2023-09-27T05:40:08.764Z,6.90
2023-09-27T05:42:36.860Z,7.17
2023-09-27T05:45:05.474Z,7.00
2023-09-27T05:47:34.669Z,6.63
2023-09-27T05:50:02.745Z,6.63
2023-09-27T05:52:30.876Z,7.07
2023-09-27T05:54:59.104Z,7.00
2023-09-27T05:57:28.608Z,6.30
2023-09-27T05:59:56.616Z,5.80
2023-09-27T06:02:31.970Z,6.17
2023-09-27T06:05:01.687Z,5.83
2023-09-27T06:07:29.923Z,6.57
2023-09-27T06:09:58.081Z,5.80
2023-09-27T06:12:26.317Z,6.87
2023-09-27T06:14:56.484Z,7.10
2023-09-27T06:17:25.854Z,7.17
2023-09-27T06:19:54.018Z,7.00
2023-09-27T06:22:24.094Z,7.43
2023-09-27T06:24:52.836Z,8.00
2023-09-27T06:27:20.942Z,8.13
2023-09-27T06:29:49.063Z,9.17
2023-09-27T06:32:18.520Z,9.10
2023-09-27T06:34:46.589Z,8.70
2023-09-27T06:37:15.143Z,9.00
2023-09-27T06:39:43.314Z,9.93
2023-09-27T06:42:11.737Z,8.57
2023-09-27T06:44:41.695Z,9.43
2023-09-27T06:47:09.955Z,9.70
2023-09-27T06:49:39.989Z,9.43
2023-09-27T06:52:08.108Z,10.27
2023-09-27T06:54:36.280Z,9.60
2023-09-27T06:57:04.352Z,9.57
2023-09-27T06:59:33.188Z,8.80
2023-09-27T07:02:01.421Z,8.70
2023-09-27T07:04:29.530Z,9.43
2023-09-27T07:06:59.177Z,9.30
2023-09-27T07:09:27.233Z,9.30
2023-09-27T07:11:55.374Z,10.60
2023-09-27T07:14:23.463Z,9.50
2023-09-27T07:19:23.047Z,9.53
2023-09-27T07:21:52.497Z,9.53
2023-09-27T07:24:22.101Z,9.00
2023-09-27T07:26:53.639Z,9.27
2023-09-27T07:29:21.971Z,9.13
2023-09-27T07:31:50.652Z,10.23
2023-09-27T07:34:19.076Z,9.57
2023-09-27T07:36:47.091Z,9.77
2023-09-27T07:39:16.793Z,9.27
2023-09-27T07:41:46.443Z,9.00
2023-09-27T07:44:16.144Z,9.37
2023-09-27T07:46:44.304Z,8.90
2023-09-27T07:49:12.945Z,8.90
2023-09-27T07:51:40.996Z,8.10
2023-09-27T07:54:09.672Z,8.70
2023-09-27T07:56:41.084Z,7.60
2023-09-27T07:59:10.937Z,8.63
2023-09-27T08:01:39.039Z,8.40
2023-09-27T08:04:11.072Z,8.30
2023-09-27T08:06:40.194Z,8.67
2023-09-27T08:09:12.607Z,8.87
2023-09-27T08:11:46.136Z,8.47
2023-09-27T08:14:17.533Z,7.90
2023-09-27T08:16:47.162Z,8.30
2023-09-27T08:19:15.516Z,8.23
2023-09-27T08:21:43.520Z,7.70
2023-09-27T08:24:11.572Z,7.57
2023-09-27T08:26:39.753Z,8.20
2023-09-27T08:29:08.912Z,8.10
2023-09-27T08:31:39.219Z,7.70
2023-09-27T08:34:07.354Z,7.97
2023-09-27T08:36:35.376Z,7.77
2023-09-27T08:39:03.599Z,7.17
2023-09-27T08:41:32.265Z,6.73
2023-09-27T08:44:00.742Z,6.80
2023-09-27T08:46:32.974Z,6.80
2023-09-27T08:49:03.433Z,7.07
2023-09-27T08:51:32.011Z,5.83
2023-09-27T08:54:01.532Z,5.67
2023-09-27T08:56:30.278Z,6.17
2023-09-27T08:58:59.512Z,5.50
2023-09-27T09:01:28.142Z,5.50
2023-09-27T09:03:57.230Z,5.70
2023-09-27T09:06:27.893Z,5.30
2023-09-27T09:08:56.446Z,5.93
2023-09-27T09:11:24.797Z,6.13
2023-09-27T09:14:06.131Z,5.40
2023-09-27T09:16:41.012Z,5.40
2023-09-27T09:19:37.512Z,5.20
2023-09-27T09:22:14.225Z,5.00
2023-09-27T09:24:44.727Z,4.80
2023-09-27T09:27:17.392Z,4.90
2023-09-27T09:29:47.642Z,6.00
2023-09-27T09:32:17.037Z,4.47
2023-09-27T09:34:46.633Z,4.47
2023-09-27T09:37:20.077Z,4.20
2023-09-27T09:39:49.938Z,4.20
2023-09-27T09:42:33.234Z,4.77
2023-09-27T09:45:02.266Z,4.20
2023-09-27T09:47:31.297Z,4.53
2023-09-27T09:49:59.599Z,4.30
2023-09-27T09:52:34.008Z,4.40
2023-09-27T09:55:17.905Z,4.00
2023-09-27T09:57:57.664Z,3.83
2023-09-27T10:00:29.045Z,3.90
2023-09-27T10:03:03.260Z,3.93
2023-09-27T10:05:37.688Z,3.87
2023-09-27T10:08:07.963Z,4.33
2023-09-27T10:10:36.654Z,4.10
2023-09-27T10:13:07.657Z,4.47
2023-09-27T10:15:36.452Z,4.53
2023-09-27T10:18:34.648Z,4.17
2023-09-27T10:21:14.299Z,4.60
2023-09-27T10:24:05.409Z,3.63
2023-09-27T10:26:39.905Z,3.27
2023-09-27T10:29:13.476Z,3.30
2023-09-27T10:32:21.299Z,3.77
2023-09-27T10:34:50.232Z,3.10
2023-09-27T10:37:19.862Z,3.23
2023-09-27T10:40:21.943Z,3.40
2023-09-27T10:42:50.169Z,2.50
2023-09-27T10:45:18.993Z,3.20
2023-09-27T10:47:48.226Z,3.07
2023-09-27T10:50:17.781Z,3.63
2023-09-27T10:52:45.986Z,3.73
2023-09-27T10:55:15.515Z,4.00
2023-09-27T10:57:46.534Z,4.20
2023-09-27T11:00:15.209Z,3.23
2023-09-27T11:02:43.982Z,3.80
2023-09-27T11:05:12.262Z,3.77
2023-09-27T11:07:52.278Z,4.00
2023-09-27T11:10:34.152Z,3.80
2023-09-27T11:13:12.927Z,3.20
2023-09-27T11:15:42.127Z,3.30
2023-09-27T11:18:11.330Z,3.33
2023-09-27T11:20:40.754Z,3.90
2023-09-27T11:23:09.548Z,3.30
2023-09-27T11:25:39.056Z,3.50
2023-09-27T11:28:07.359Z,3.43
2023-09-27T11:30:36.986Z,3.47
2023-09-27T11:33:07.618Z,3.20
2023-09-27T11:35:36.951Z,3.20
2023-09-27T11:38:11.366Z,3.43
2023-09-27T11:40:40.130Z,3.60
2023-09-27T11:43:08.441Z,3.40
2023-09-27T11:45:49.366Z,2.80
2023-09-27T11:48:18.620Z,2.97
2023-09-27T11:50:47.448Z,2.83
2023-09-27T11:53:15.828Z,2.40
2023-09-27T11:55:44.258Z,3.00
2023-09-27T11:58:12.966Z,2.70
2023-09-27T12:00:41.045Z,2.70
2023-09-27T12:03:11.857Z,3.17
2023-09-27T12:05:40.592Z,2.30
2023-09-27T12:08:09.334Z,2.77
2023-09-27T12:10:37.407Z,2.77
2023-09-27T12:13:06.400Z,2.47
2023-09-27T12:15:34.461Z,2.83
2023-09-27T12:18:02.650Z,2.63
2023-09-27T12:20:40.656Z,3.03
2023-09-27T12:23:11.480Z,3.13
2023-09-27T12:25:39.964Z,2.40
2023-09-27T12:28:08.069Z,2.50
2023-09-27T12:30:36.151Z,3.37
2023-09-27T12:33:04.461Z,3.67
2023-09-27T12:35:34.413Z,3.30
2023-09-27T12:38:05.351Z,3.30
2023-09-27T12:40:34.210Z,2.77
2023-09-27T12:43:02.570Z,2.53
2023-09-27T12:45:31.487Z,3.27
2023-09-27T12:48:00.751Z,2.77
2023-09-27T12:50:28.973Z,3.00
2023-09-27T12:52:59.247Z,2.53
2023-09-27T12:55:27.237Z,2.87
2023-09-27T12:57:55.629Z,3.13
2023-09-27T13:00:26.673Z,3.40
2023-09-27T13:02:54.836Z,3.60
2023-09-27T13:05:37.301Z,3.30
2023-09-27T13:08:19.513Z,6.90
2023-09-27T13:10:47.636Z,2.80
2023-09-27T13:13:15.613Z,2.33
2023-09-27T13:15:43.603Z,2.93
2023-09-27T13:18:11.707Z,2.67
2023-09-27T13:20:39.793Z,3.10
2023-09-27T13:23:07.825Z,2.60
2023-09-27T13:25:37.223Z,2.30
2023-09-27T13:28:05.845Z,3.07
2023-09-27T13:30:36.396Z,2.80
2023-09-27T13:33:05.411Z,2.33
2023-09-27T13:35:36.369Z,4.07
2023-09-27T13:38:06.815Z,2.70
2023-09-27T13:40:34.969Z,2.80
2023-09-27T13:43:04.601Z,2.83
2023-09-27T13:45:32.959Z,2.50
2023-09-27T13:48:01.329Z,2.23
2023-09-27T13:50:33.454Z,2.60
2023-09-27T13:53:02.662Z,2.87
2023-09-27T13:55:31.037Z,2.30
2023-09-27T13:57:59.084Z,2.60
2023-09-27T14:00:29.132Z,2.30
2023-09-27T14:02:57.600Z,2.67
2023-09-27T14:05:26.088Z,2.90
2023-09-27T14:07:54.308Z,2.30
2023-09-27T14:10:24.203Z,2.40
2023-09-27T14:12:52.854Z,2.57
2023-09-27T14:15:22.041Z,2.60
2023-09-27T14:17:51.618Z,2.70
2023-09-27T14:20:21.900Z,2.63
2023-09-27T14:22:50.596Z,2.80
2023-09-27T14:25:18.906Z,2.30
2023-09-27T14:27:46.915Z,2.50
2023-09-27T14:30:15.627Z,2.60
2023-09-27T14:32:44.296Z,2.50
2023-09-27T14:35:14.337Z,2.10
2023-09-27T14:37:43.179Z,2.37
2023-09-27T14:40:11.619Z,2.60
2023-09-27T14:42:40.924Z,2.50
2023-09-27T14:45:16.871Z,2.27
2023-09-27T14:47:56.872Z,3.50
2023-09-27T14:50:26.276Z,2.40
2023-09-27T14:52:55.280Z,2.40
2023-09-27T14:55:28.424Z,2.20
2023-09-27T14:57:59.625Z,2.57
2023-09-27T15:00:28.096Z,2.00
2023-09-27T15:02:57.739Z,2.60
2023-09-27T15:05:27.299Z,2.30
2023-09-27T15:07:55.360Z,2.70
2023-09-27T15:10:23.483Z,2.47
2023-09-27T15:12:51.542Z,2.23
2023-09-27T15:15:19.561Z,2.87
2023-09-27T15:17:47.872Z,2.40
2023-09-27T15:20:16.284Z,2.10
2023-09-27T15:22:45.660Z,2.60
2023-09-27T15:25:13.770Z,3.10
2023-09-27T15:27:41.872Z,2.50
2023-09-27T15:30:11.728Z,3.00
2023-09-27T15:32:40.333Z,4.23
2023-09-27T15:35:09.705Z,2.80
2023-09-27T15:37:37.737Z,2.80
2023-09-27T15:40:10.286Z,3.00
2023-09-27T15:42:39.410Z,3.00
2023-09-27T15:45:10.651Z,3.10
2023-09-27T15:47:47.033Z,2.60
2023-09-27T15:50:15.983Z,2.27
2023-09-27T15:52:44.251Z,2.47
2023-09-27T15:55:14.036Z,2.50
2023-09-27T15:57:42.011Z,5.37
2023-09-27T16:00:12.579Z,2.50
2023-09-27T16:02:41.222Z,2.13
2023-09-27T16:05:11.808Z,2.97
2023-09-27T16:07:40.397Z,2.43
2023-09-27T16:10:10.022Z,2.70
2023-09-27T16:12:39.834Z,2.10
2023-09-27T16:15:09.320Z,2.63
2023-09-27T16:17:40.088Z,3.40
2023-09-27T16:20:09.553Z,3.57
2023-09-27T16:22:37.612Z,2.50
2023-09-27T16:25:06.512Z,3.03
2023-09-27T16:27:34.879Z,2.70
2023-09-27T16:30:06.374Z,3.00
2023-09-27T16:32:35.630Z,2.90
2023-09-27T16:35:03.818Z,2.90
2023-09-27T16:37:31.838Z,3.30
2023-09-27T16:39:59.862Z,3.80
2023-09-27T16:42:28.073Z,4.23
2023-09-27T16:44:57.023Z,3.63
2023-09-27T16:47:26.397Z,3.30
2023-09-27T16:49:54.998Z,3.17
2023-09-27T16:52:23.159Z,3.47
2023-09-27T16:54:51.216Z,4.30
2023-09-27T16:57:20.004Z,4.03
2023-09-27T16:59:48.614Z,3.73
2023-09-27T17:02:16.807Z,4.37
2023-09-27T17:04:46.301Z,3.90
2023-09-27T17:07:14.385Z,3.83
2023-09-27T17:09:42.879Z,4.70
2023-09-27T17:12:10.923Z,3.77
2023-09-27T17:14:39.408Z,4.17
2023-09-27T17:17:07.527Z,4.10
2023-09-27T17:19:35.537Z,4.00
2023-09-27T17:22:05.313Z,3.67
2023-09-27T17:24:35.932Z,3.70
2023-09-27T17:27:04.014Z,4.20
2023-09-27T17:29:32.010Z,3.57
2023-09-27T17:32:00.358Z,3.47
2023-09-27T17:34:28.777Z,3.63
2023-09-27T17:36:56.983Z,4.30
2023-09-27T17:39:26.385Z,3.57
2023-09-27T17:41:54.392Z,5.50
2023-09-27T17:44:22.450Z,4.30
2023-09-27T17:46:50.492Z,4.10
2023-09-27T17:49:18.511Z,4.13
2023-09-27T17:51:49.013Z,4.27
2023-09-27T17:54:17.015Z,3.80
2023-09-27T17:56:46.846Z,4.27
2023-09-27T17:59:14.847Z,4.10
2023-09-27T18:01:42.881Z,4.17
2023-09-27T18:04:11.625Z,3.77
2023-09-27T18:06:40.052Z,4.10
2023-09-27T18:09:08.002Z,4.70
2023-09-27T18:11:36.127Z,4.40
2023-09-27T18:14:05.649Z,4.73
2023-09-27T18:16:33.785Z,4.67
2023-09-27T18:19:02.016Z,4.70
2023-09-27T18:21:30.114Z,6.90
2023-09-27T18:23:59.311Z,6.60
2023-09-27T18:26:27.358Z,6.23
2023-09-27T18:28:55.939Z,6.40
2023-09-27T18:31:27.922Z,6.90
2023-09-27T18:33:57.570Z,6.93
2023-09-27T18:36:25.603Z,8.67
2023-09-27T18:38:53.626Z,6.03
2023-09-27T18:41:21.622Z,4.80
2023-09-27T18:43:50.052Z,4.60
2023-09-27T18:46:18.200Z,3.33
2023-09-27T18:48:49.117Z,3.37
2023-09-27T18:51:21.396Z,3.97
2023-09-27T18:53:50.592Z,3.60
2023-09-27T18:56:19.629Z,3.67
2023-09-27T18:58:48.894Z,3.77
2023-09-27T19:01:17.214Z,3.20
2023-09-27T19:03:46.788Z,3.83
2023-09-27T19:06:17.825Z,3.40
2023-09-27T19:08:46.059Z,3.80
2023-09-27T19:11:18.885Z,3.53
2023-09-27T19:13:46.978Z,3.83
2023-09-27T19:16:15.386Z,3.60
2023-09-27T19:18:43.384Z,4.00
2023-09-27T19:21:11.536Z,3.87
2023-09-27T19:23:41.108Z,3.83
2023-09-27T19:26:09.300Z,4.07
2023-09-27T19:28:38.472Z,4.07
2023-09-27T19:31:09.494Z,4.50
2023-09-27T19:33:42.411Z,4.30
2023-09-27T19:36:14.282Z,4.00
2023-09-27T19:38:43.658Z,3.93
2023-09-27T19:41:12.013Z,3.63
2023-09-27T19:43:40.141Z,3.10
2023-09-27T19:46:08.300Z,3.40
2023-09-27T19:48:43.398Z,3.30
2023-09-27T19:51:20.856Z,3.50
2023-09-27T19:53:51.837Z,4.00
2023-09-27T19:56:20.099Z,3.80
2023-09-27T19:58:48.378Z,4.30
2023-09-27T20:01:28.179Z,3.87
2023-09-27T20:03:56.974Z,4.03
2023-09-27T20:06:25.447Z,4.13
2023-09-27T20:08:54.984Z,4.33
2023-09-27T20:11:23.065Z,4.67
2023-09-27T20:13:51.271Z,4.67
2023-09-27T20:16:19.484Z,4.70
2023-09-27T20:18:47.559Z,4.27
2023-09-27T20:21:15.535Z,3.67
2023-09-27T20:23:43.668Z,3.40
2023-09-27T20:26:12.981Z,3.03
2023-09-27T20:28:42.430Z,4.10
2023-09-27T20:31:10.645Z,4.23
2023-09-27T20:33:38.915Z,3.77
2023-09-27T20:36:07.785Z,3.90
2023-09-27T20:38:35.904Z,4.20
2023-09-27T20:41:03.905Z,3.93
2023-09-27T20:43:33.363Z,4.50
2023-09-27T20:46:01.631Z,4.40
2023-09-27T20:48:29.671Z,4.10
2023-09-27T20:50:58.652Z,4.17
2023-09-27T20:53:26.799Z,4.70
2023-09-27T20:55:55.042Z,3.80
2023-09-27T20:58:23.387Z,3.83
2023-09-27T21:00:52.929Z,4.83
2023-09-27T21:03:21.086Z,4.37
2023-09-27T21:05:49.050Z,3.70
2023-09-27T21:08:17.042Z,4.20
2023-09-27T21:10:45.024Z,3.43
2023-09-27T21:13:12.981Z,4.60
2023-09-27T21:15:41.661Z,4.10
2023-09-27T21:18:11.349Z,4.10
2023-09-27T21:20:39.450Z,3.97
2023-09-27T21:23:07.516Z,4.00
2023-09-27T21:25:35.591Z,3.37
2023-09-27T21:28:03.826Z,4.03
2023-09-27T21:30:31.868Z,3.43
2023-09-27T21:32:59.902Z,3.33
2023-09-27T21:35:29.297Z,3.33
2023-09-27T21:37:57.384Z,3.57
2023-09-27T21:40:25.395Z,3.27
2023-09-27T21:42:54.752Z,3.30
2023-09-27T21:45:22.768Z,3.07
2023-09-27T21:47:50.835Z,3.40
2023-09-27T21:50:18.989Z,3.37
2023-09-27T21:52:48.402Z,3.90
2023-09-27T21:55:16.523Z,4.10
2023-09-27T21:57:44.557Z,3.73
2023-09-27T22:00:21.367Z,3.40
2023-09-27T22:02:50.042Z,3.40
2023-09-27T22:05:20.527Z,3.43
2023-09-27T22:07:49.899Z,3.80
2023-09-27T22:10:19.237Z,3.40
2023-09-27T22:12:47.523Z,3.23
2023-09-27T22:15:16.016Z,3.80
2023-09-27T22:17:44.198Z,4.23
2023-09-27T22:20:20.369Z,3.57
2023-09-27T22:22:50.661Z,3.60
2023-09-27T22:25:19.920Z,3.87
2023-09-27T22:27:50.146Z,3.53
2023-09-27T22:30:18.173Z,3.70
2023-09-27T22:32:47.068Z,4.37
2023-09-27T22:35:23.710Z,3.57
2023-09-27T22:37:54.077Z,3.70
2023-09-27T22:40:23.876Z,4.40
2023-09-27T22:42:53.663Z,4.20
2023-09-27T22:45:36.044Z,4.00
2023-09-27T22:48:05.627Z,4.13
2023-09-27T22:50:45.664Z,4.90
2023-09-27T22:53:15.986Z,5.17
2023-09-27T22:55:45.865Z,5.10
2023-09-27T22:58:13.841Z,4.80
2023-09-27T23:00:42.111Z,5.33
2023-09-27T23:03:14.750Z,4.63
2023-09-27T23:05:45.282Z,5.17
2023-09-27T23:08:26.955Z,4.90
2023-09-27T23:10:56.192Z,5.00
2023-09-27T23:13:39.558Z,4.90
2023-09-27T23:16:34.607Z,4.90
2023-09-27T23:19:02.043Z,4.60
2023-09-27T23:21:32.523Z,4.33
2023-09-27T23:24:26.539Z,4.80
2023-09-27T23:27:02.865Z,3.87
2023-09-27T23:29:37.469Z,4.23
2023-09-27T23:32:23.207Z,4.27
2023-09-27T23:34:54.669Z,4.90
2023-09-27T23:37:31.890Z,4.17
2023-09-27T23:40:02.381Z,4.00
2023-09-27T23:42:35.556Z,3.93
2023-09-27T23:45:10.156Z,4.20
2023-09-27T23:47:44.520Z,4.10
2023-09-27T23:50:16.538Z,4.80
2023-09-27T23:52:46.648Z,4.30
2023-09-27T23:55:18.071Z,5.30
2023-09-27T23:57:48.555Z,4.83
